createdAt,value
2018-05-18T00:01:43.916Z,36.80
2018-05-18T00:04:10.169Z,34.70
2018-05-18T00:06:36.404Z,35.83
2018-05-18T00:09:02.691Z,36.83
2018-05-18T00:11:28.914Z,38.40
2018-05-18T00:13:55.144Z,37.33
2018-05-18T00:16:21.386Z,38.70
2018-05-18T00:18:47.646Z,34.97
2018-05-18T00:21:13.885Z,36.07
2018-05-18T00:23:40.126Z,37.97
2018-05-18T00:26:06.370Z,36.33
2018-05-18T00:28:32.824Z,36.50
2018-05-18T00:30:59.779Z,36.20
2018-05-18T00:33:26.016Z,37.33
2018-05-18T00:35:53.006Z,37.40
2018-05-18T00:38:19.226Z,38.70
2018-05-18T00:40:46.239Z,39.50
2018-05-18T00:43:12.457Z,36.27
2018-05-18T00:45:38.679Z,35.50
2018-05-18T00:48:04.937Z,38.37
2018-05-18T00:50:31.149Z,37.27
2018-05-18T00:53:05.043Z,39.33
2018-05-18T00:55:39.253Z,36.90
2018-05-18T00:58:05.492Z,37.93
2018-05-18T01:00:31.723Z,36.20
2018-05-18T01:02:57.957Z,36.80
2018-05-18T01:05:24.161Z,35.00
2018-05-18T01:07:51.114Z,39.10
2018-05-18T01:10:18.101Z,35.80
2018-05-18T01:12:44.322Z,39.60
2018-05-18T01:15:11.305Z,36.60
2018-05-18T01:17:37.528Z,35.33
2018-05-18T01:20:03.797Z,39.47
2018-05-18T01:22:30.060Z,35.10
2018-05-18T01:24:56.304Z,37.07
2018-05-18T01:27:22.545Z,37.23
2018-05-18T01:29:49.101Z,38.20
2018-05-18T01:32:15.348Z,36.43
2018-05-18T01:34:41.575Z,38.07
2018-05-18T01:37:07.792Z,39.87
2018-05-18T01:39:34.039Z,38.87
2018-05-18T01:42:00.273Z,36.93
2018-05-18T01:44:26.488Z,37.17
2018-05-18T01:46:52.730Z,46.10
2018-05-18T01:49:18.939Z,38.40
2018-05-18T01:51:45.928Z,38.77
2018-05-18T01:54:12.160Z,34.90
2018-05-18T01:56:38.376Z,38.83
2018-05-18T01:59:05.350Z,38.40
2018-05-18T02:01:32.342Z,34.70
2018-05-18T02:03:58.583Z,34.80
2018-05-18T02:06:24.795Z,38.20
2018-05-18T02:08:51.016Z,38.60
2018-05-18T02:11:17.976Z,37.87
2018-05-18T02:13:44.936Z,38.00
2018-05-18T02:16:11.912Z,36.63
2018-05-18T02:18:38.141Z,35.30
2018-05-18T02:21:05.117Z,38.47
2018-05-18T02:23:31.387Z,35.97
2018-05-18T02:25:57.606Z,36.10
2018-05-18T02:28:23.826Z,37.60
2018-05-18T02:30:50.922Z,38.17
2018-05-18T02:33:17.888Z,36.20
2018-05-18T02:35:44.114Z,37.30
2018-05-18T02:38:10.338Z,39.10
2018-05-18T02:40:36.556Z,35.50
2018-05-18T02:43:03.525Z,38.60
2018-05-18T02:45:29.786Z,39.60
2018-05-18T02:47:56.006Z,38.20
2018-05-18T02:50:22.254Z,25.60
2018-05-18T02:52:48.504Z,32.13
2018-05-18T02:55:14.736Z,34.97
2018-05-18T02:57:40.955Z,32.43
2018-05-18T03:00:07.934Z,33.37
2018-05-18T03:02:34.149Z,35.80
2018-05-18T03:05:01.109Z,33.63
2018-05-18T03:07:28.110Z,32.83
2018-05-18T03:09:54.339Z,30.00
2018-05-18T03:12:20.588Z,32.40
2018-05-18T03:14:46.835Z,31.33
2018-05-18T03:17:13.047Z,31.53
2018-05-18T03:19:39.273Z,32.37
2018-05-18T03:22:06.305Z,28.00
2018-05-18T03:24:32.531Z,30.97
2018-05-18T03:27:01.665Z,29.57
2018-05-18T03:29:28.645Z,31.90
2018-05-18T03:31:55.715Z,30.73
2018-05-18T03:34:21.975Z,31.10
2018-05-18T03:36:48.216Z,30.23
2018-05-18T03:39:14.448Z,33.30
2018-05-18T03:41:40.675Z,31.50
2018-05-18T03:44:06.918Z,30.20
2018-05-18T03:46:33.160Z,30.97
2018-05-18T03:48:59.373Z,30.80
2018-05-18T03:51:26.361Z,31.50
2018-05-18T03:53:52.587Z,29.57
2018-05-18T03:56:19.552Z,28.37
2018-05-18T03:58:45.780Z,31.87
2018-05-18T04:01:18.666Z,30.03
2018-05-18T04:03:57.103Z,30.17
2018-05-18T04:06:36.120Z,29.10
2018-05-18T04:09:02.420Z,28.10
2018-05-18T04:11:28.630Z,30.57
2018-05-18T04:13:55.720Z,27.47
2018-05-18T04:16:21.960Z,27.37
2018-05-18T04:18:48.194Z,26.50
2018-05-18T04:21:14.460Z,29.50
2018-05-18T04:23:40.710Z,29.70
2018-05-18T04:26:07.682Z,26.07
2018-05-18T04:28:33.921Z,27.53
2018-05-18T04:31:00.198Z,24.20
2018-05-18T04:33:27.173Z,24.47
2018-05-18T04:35:53.518Z,23.80
2018-05-18T04:38:19.746Z,27.83
2018-05-18T04:40:45.974Z,28.40
2018-05-18T04:43:12.976Z,25.97
2018-05-18T04:45:39.214Z,27.60
2018-05-18T04:48:05.430Z,26.20
2018-05-18T04:50:31.679Z,26.63
2018-05-18T04:52:57.911Z,28.57
2018-05-18T04:55:24.140Z,28.27
2018-05-18T04:57:51.091Z,27.00
2018-05-18T05:00:18.100Z,28.77
2018-05-18T05:02:44.331Z,30.17
2018-05-18T05:05:10.579Z,31.17
2018-05-18T05:07:37.004Z,29.80
2018-05-18T05:10:03.252Z,31.20
2018-05-18T05:12:29.551Z,30.93
2018-05-18T05:14:55.787Z,33.53
2018-05-18T05:17:22.761Z,31.00
2018-05-18T05:19:49.711Z,32.27
2018-05-18T05:22:16.024Z,31.50
2018-05-18T05:24:42.248Z,33.23
2018-05-18T05:27:08.485Z,33.70
2018-05-18T05:29:34.733Z,34.10
2018-05-18T05:32:01.415Z,32.80
2018-05-18T05:34:27.655Z,34.27
2018-05-18T05:36:54.653Z,33.50
2018-05-18T05:39:20.989Z,34.60
2018-05-18T05:41:47.249Z,32.53
2018-05-18T05:44:13.508Z,32.20
2018-05-18T05:46:39.747Z,32.67
2018-05-18T05:49:05.970Z,33.40
2018-05-18T05:51:32.213Z,30.93
2018-05-18T05:53:58.441Z,33.40
2018-05-18T05:56:24.665Z,32.87
2018-05-18T05:58:50.922Z,34.43
2018-05-18T06:01:17.153Z,33.03
2018-05-18T06:03:43.386Z,33.87
2018-05-18T06:06:09.649Z,35.10
2018-05-18T06:08:35.861Z,33.13
2018-05-18T06:11:02.089Z,34.70
2018-05-18T06:13:29.104Z,30.50
2018-05-18T06:15:55.343Z,34.80
2018-05-18T06:18:21.558Z,33.80
2018-05-18T06:20:48.055Z,31.47
2018-05-18T06:23:14.410Z,33.77
2018-05-18T06:25:40.626Z,32.30
2018-05-18T06:28:06.891Z,32.30
2018-05-18T06:30:33.867Z,32.73
2018-05-18T06:33:00.996Z,29.53
2018-05-18T06:35:27.455Z,30.10
2018-05-18T06:37:53.703Z,30.00
2018-05-18T06:40:20.662Z,30.10
2018-05-18T06:42:46.902Z,28.40
2018-05-18T06:45:13.872Z,31.30
2018-05-18T06:47:40.101Z,28.63
2018-05-18T06:50:07.115Z,31.33
2018-05-18T06:52:33.365Z,29.70
2018-05-18T06:54:59.559Z,30.67
2018-05-18T06:57:25.798Z,32.63
2018-05-18T06:59:52.016Z,29.80
2018-05-18T07:02:19.008Z,32.20
2018-05-18T07:04:45.244Z,28.37
2018-05-18T07:07:11.448Z,27.70
2018-05-18T07:09:37.675Z,30.23
2018-05-18T07:12:03.929Z,29.60
2018-05-18T07:14:30.164Z,29.03
2018-05-18T07:16:56.374Z,30.23
2018-05-18T07:19:22.625Z,29.20
2018-05-18T07:21:48.864Z,29.33
2018-05-18T07:24:15.081Z,30.50
2018-05-18T07:26:41.314Z,27.37
2018-05-18T07:29:07.542Z,28.37
2018-05-18T07:31:33.780Z,30.50
2018-05-18T07:34:00.164Z,29.20
2018-05-18T07:36:26.390Z,28.40
2018-05-18T07:38:52.606Z,28.83
2018-05-18T07:41:18.838Z,31.43
2018-05-18T07:43:45.143Z,31.50
2018-05-18T07:46:11.282Z,29.40
2018-05-18T07:48:37.540Z,28.10
2018-05-18T07:51:04.518Z,30.63
2018-05-18T07:53:31.573Z,28.70
2018-05-18T07:55:57.697Z,27.80
2018-05-18T07:58:23.933Z,29.67
2018-05-18T08:00:50.163Z,26.20
2018-05-18T08:03:16.387Z,27.80
2018-05-18T08:05:42.637Z,27.47
2018-05-18T08:08:08.839Z,27.37
2018-05-18T08:10:35.073Z,26.17
2018-05-18T08:13:01.291Z,26.00
2018-05-18T08:15:28.876Z,25.17
2018-05-18T08:17:55.865Z,28.30
2018-05-18T08:20:22.081Z,28.13
2018-05-18T08:22:48.315Z,28.13
2018-05-18T08:25:14.604Z,28.03
2018-05-18T08:27:40.926Z,24.53
2018-05-18T08:30:07.106Z,25.10
2018-05-18T08:32:33.378Z,22.20
2018-05-18T08:34:59.628Z,26.07
2018-05-18T08:37:25.836Z,25.57
2018-05-18T08:39:52.088Z,24.60
2018-05-18T08:42:19.054Z,22.80
2018-05-18T08:44:45.292Z,25.53
2018-05-18T08:47:12.254Z,21.60
2018-05-18T08:49:38.469Z,22.60
2018-05-18T08:52:04.689Z,19.13
2018-05-18T08:54:30.922Z,22.10
2018-05-18T08:56:57.142Z,21.50
2018-05-18T08:59:23.357Z,18.83
2018-05-18T09:01:50.411Z,18.17
2018-05-18T09:04:16.622Z,19.33
2018-05-18T09:06:42.852Z,20.40
2018-05-18T09:09:09.081Z,19.47
2018-05-18T09:11:35.309Z,20.20
2018-05-18T09:14:01.585Z,19.07
2018-05-18T09:16:27.947Z,20.03
2018-05-18T09:18:54.234Z,19.97
2018-05-18T09:21:20.528Z,18.03
2018-05-18T09:23:47.612Z,19.20
2018-05-18T09:26:13.906Z,19.40
2018-05-18T09:28:40.184Z,19.50
2018-05-18T09:31:06.494Z,20.17
2018-05-18T09:33:32.744Z,19.20
2018-05-18T09:35:58.992Z,20.70
2018-05-18T09:38:25.270Z,22.77
2018-05-18T09:40:51.494Z,26.53
2018-05-18T09:43:18.458Z,51.13
2018-05-18T09:45:44.706Z,39.40
2018-05-18T09:48:10.913Z,17.47
2018-05-18T09:50:37.114Z,18.63
2018-05-18T09:53:03.348Z,17.63
2018-05-18T09:55:29.866Z,26.40
2018-05-18T09:57:55.842Z,19.90
2018-05-18T10:00:22.074Z,17.87
2018-05-18T10:02:48.304Z,17.80
2018-05-18T10:05:14.513Z,16.60
2018-05-18T10:07:40.778Z,18.83
2018-05-18T10:10:07.010Z,17.27
2018-05-18T10:12:33.209Z,16.30
2018-05-18T10:14:59.437Z,17.03
2018-05-18T10:17:25.654Z,15.43
2018-05-18T10:19:51.866Z,17.50
2018-05-18T10:22:18.120Z,17.40
2018-05-18T10:24:44.354Z,16.37
2018-05-18T10:27:10.590Z,16.80
2018-05-18T10:29:36.847Z,15.53
2018-05-18T10:32:03.093Z,16.20
2018-05-18T10:34:29.322Z,16.00
2018-05-18T10:36:55.573Z,18.70
2018-05-18T10:39:21.794Z,18.03
2018-05-18T10:41:48.031Z,16.93
2018-05-18T10:44:14.310Z,17.27
2018-05-18T10:46:40.571Z,18.00
2018-05-18T10:49:06.819Z,17.93
2018-05-18T10:51:33.050Z,17.13
2018-05-18T10:53:59.279Z,17.93
2018-05-18T10:56:25.494Z,18.20
2018-05-18T10:58:51.721Z,19.10
2018-05-18T11:01:17.969Z,17.30
2018-05-18T11:03:44.222Z,17.53
2018-05-18T11:06:10.476Z,17.10
2018-05-18T11:08:36.701Z,16.17
2018-05-18T11:11:02.914Z,18.40
2018-05-18T11:13:29.158Z,15.90
2018-05-18T11:15:55.354Z,14.67
2018-05-18T11:18:21.565Z,11.93
2018-05-18T11:20:47.810Z,12.30
2018-05-18T11:23:14.064Z,11.60
2018-05-18T11:25:40.282Z,13.07
2018-05-18T11:28:06.494Z,16.97
2018-05-18T11:30:32.704Z,13.50
2018-05-18T11:32:59.047Z,12.40
2018-05-18T11:35:25.305Z,13.60
2018-05-18T11:37:51.558Z,15.33
2018-05-18T11:40:17.793Z,14.87
2018-05-18T11:42:44.117Z,15.43
2018-05-18T11:45:11.105Z,16.13
2018-05-18T11:47:37.366Z,15.00
2018-05-18T11:50:04.394Z,14.37
2018-05-18T11:52:30.628Z,13.40
2018-05-18T11:54:57.598Z,13.40
2018-05-18T11:57:23.847Z,13.77
2018-05-18T11:59:50.066Z,14.60
2018-05-18T12:02:16.264Z,14.13
2018-05-18T12:04:42.515Z,15.17
2018-05-18T12:07:08.733Z,15.80
2018-05-18T12:09:34.973Z,14.80
2018-05-18T12:12:01.211Z,15.63
2018-05-18T12:14:27.450Z,13.67
2018-05-18T12:16:53.678Z,14.40
2018-05-18T12:19:19.956Z,14.23
2018-05-18T12:21:46.196Z,14.10
2018-05-18T12:24:12.432Z,14.20
2018-05-18T12:26:38.670Z,13.60
2018-05-18T12:29:04.929Z,15.10
2018-05-18T12:31:31.176Z,12.27
2018-05-18T12:33:57.512Z,13.13
2018-05-18T12:36:23.754Z,12.80
2018-05-18T12:38:49.987Z,13.40
2018-05-18T12:41:16.214Z,13.20
2018-05-18T12:43:42.443Z,12.40
2018-05-18T12:46:08.662Z,12.60
2018-05-18T12:48:34.934Z,12.53
2018-05-18T12:51:01.340Z,12.77
2018-05-18T12:53:27.573Z,13.40
2018-05-18T12:55:53.847Z,15.70
2018-05-18T12:58:20.091Z,13.93
2018-05-18T13:00:46.293Z,13.73
2018-05-18T13:03:12.564Z,15.00
2018-05-18T13:05:38.798Z,16.27
2018-05-18T13:08:05.030Z,14.40
2018-05-18T13:10:31.637Z,14.13
2018-05-18T13:12:57.859Z,12.97
2018-05-18T13:15:24.085Z,13.10
2018-05-18T13:17:50.347Z,13.53
2018-05-18T13:20:16.608Z,12.80
2018-05-18T13:22:43.582Z,12.03
2018-05-18T13:25:09.892Z,12.30
2018-05-18T13:27:36.124Z,11.27
2018-05-18T13:30:02.360Z,11.80
2018-05-18T13:32:28.637Z,11.90
2018-05-18T13:34:54.871Z,13.90
2018-05-18T13:37:21.854Z,11.50
2018-05-18T13:39:48.141Z,12.27
2018-05-18T13:42:14.369Z,16.63
2018-05-18T13:44:40.609Z,15.43
2018-05-18T13:47:06.869Z,12.60
2018-05-18T13:49:33.095Z,14.07
2018-05-18T13:51:59.330Z,14.30
2018-05-18T13:54:25.575Z,12.73
2018-05-18T13:56:51.792Z,12.70
2018-05-18T13:59:18.014Z,11.73
2018-05-18T14:01:44.270Z,12.43
2018-05-18T14:04:10.500Z,12.33
2018-05-18T14:06:36.742Z,12.53
2018-05-18T14:09:03.064Z,11.23
2018-05-18T14:11:29.277Z,12.80
2018-05-18T14:13:55.540Z,12.00
2018-05-18T14:16:21.776Z,11.87
2018-05-18T14:18:47.983Z,12.83
2018-05-18T14:21:14.199Z,11.10
2018-05-18T14:23:40.456Z,10.40
2018-05-18T14:26:06.705Z,12.00
2018-05-18T14:28:32.945Z,11.00
2018-05-18T14:30:59.949Z,12.27
2018-05-18T14:33:26.982Z,10.90
2018-05-18T14:35:53.205Z,11.13
2018-05-18T14:38:19.480Z,12.97
2018-05-18T14:40:46.446Z,13.57
2018-05-18T14:43:13.425Z,10.70
2018-05-18T14:45:39.670Z,10.27
2018-05-18T14:48:05.888Z,12.30
2018-05-18T14:50:32.885Z,12.37
2018-05-18T14:52:59.175Z,11.33
2018-05-18T14:55:26.157Z,11.90
2018-05-18T14:57:52.397Z,11.93
2018-05-18T15:00:18.663Z,11.33
2018-05-18T15:02:44.904Z,12.63
2018-05-18T15:05:11.175Z,11.30
2018-05-18T15:07:37.522Z,11.93
2018-05-18T15:10:03.775Z,13.27
2018-05-18T15:12:29.993Z,11.27
2018-05-18T15:14:56.251Z,11.30
2018-05-18T15:17:22.463Z,10.30
2018-05-18T15:19:48.683Z,11.30
2018-05-18T15:22:14.931Z,9.80
2018-05-18T15:24:41.886Z,9.93
2018-05-18T15:27:08.155Z,10.50
2018-05-18T15:29:34.412Z,10.77
2018-05-18T15:32:00.666Z,10.83
2018-05-18T15:34:27.645Z,10.43
2018-05-18T15:36:53.920Z,9.93
2018-05-18T15:39:20.159Z,11.50
2018-05-18T15:41:46.428Z,11.07
2018-05-18T15:44:12.677Z,11.40
2018-05-18T15:46:38.939Z,10.70
2018-05-18T15:49:05.234Z,9.93
2018-05-18T15:51:31.479Z,11.77
2018-05-18T15:53:57.713Z,10.53
2018-05-18T15:56:23.943Z,10.13
2018-05-18T15:58:50.193Z,9.73
2018-05-18T16:01:16.404Z,11.63
2018-05-18T16:03:42.659Z,10.57
2018-05-18T16:06:08.896Z,10.43
2018-05-18T16:08:35.140Z,10.97
2018-05-18T16:11:01.362Z,10.10
2018-05-18T16:13:27.707Z,11.63
2018-05-18T16:15:53.938Z,10.47
2018-05-18T16:18:20.173Z,9.80
2018-05-18T16:20:46.407Z,10.63
2018-05-18T16:23:13.404Z,10.10
2018-05-18T16:25:39.656Z,9.20
2018-05-18T16:28:05.934Z,9.13
2018-05-18T16:30:32.201Z,7.30
2018-05-18T16:32:58.428Z,7.90
2018-05-18T16:35:25.430Z,7.97
2018-05-18T16:37:51.668Z,8.40
2018-05-18T16:40:17.898Z,8.40
2018-05-18T16:42:44.150Z,6.83
2018-05-18T16:45:10.378Z,8.13
2018-05-18T16:47:36.636Z,8.73
2018-05-18T16:50:02.906Z,7.80
2018-05-18T16:52:29.124Z,7.37
2018-05-18T16:54:56.146Z,8.13
2018-05-18T16:57:22.429Z,8.40
2018-05-18T16:59:48.655Z,8.60
2018-05-18T17:02:15.626Z,7.73
2018-05-18T17:04:42.638Z,10.00
2018-05-18T17:07:08.874Z,10.20
2018-05-18T17:09:35.846Z,9.13
2018-05-18T17:12:02.848Z,7.90
2018-05-18T17:14:29.069Z,9.30
2018-05-18T17:16:55.293Z,10.83
2018-05-18T17:19:21.643Z,10.03
2018-05-18T17:21:47.865Z,9.07
2018-05-18T17:24:14.091Z,9.37
2018-05-18T17:26:41.082Z,11.57
2018-05-18T17:29:07.325Z,9.90
2018-05-18T17:31:33.595Z,11.90
2018-05-18T17:33:59.839Z,11.80
2018-05-18T17:36:26.069Z,11.50
2018-05-18T17:38:52.290Z,10.23
2018-05-18T17:41:18.549Z,10.40
2018-05-18T17:43:44.822Z,10.83
2018-05-18T17:46:11.839Z,10.17
2018-05-18T17:48:38.131Z,10.30
2018-05-18T17:51:05.119Z,10.63
2018-05-18T17:53:31.358Z,9.13
2018-05-18T17:55:57.614Z,9.50
2018-05-18T17:58:23.847Z,10.50
2018-05-18T18:00:50.076Z,10.30
2018-05-18T18:03:16.361Z,10.30
2018-05-18T18:05:42.585Z,11.27
2018-05-18T18:08:08.868Z,10.83
2018-05-18T18:10:35.850Z,10.93
2018-05-18T18:13:02.091Z,10.80
2018-05-18T18:15:28.542Z,10.37
2018-05-18T18:17:54.778Z,10.20
2018-05-18T18:20:21.008Z,9.73
2018-05-18T18:22:47.255Z,11.20
2018-05-18T18:25:13.615Z,11.13
2018-05-18T18:27:39.846Z,10.90
2018-05-18T18:30:06.134Z,10.33
2018-05-18T18:34:56.968Z,9.93
2018-05-18T18:37:23.204Z,10.67
2018-05-18T18:39:49.469Z,11.20
2018-05-18T18:42:15.702Z,10.13
2018-05-18T18:44:42.112Z,10.77
2018-05-18T18:47:08.378Z,10.80
2018-05-18T18:49:34.685Z,11.13
2018-05-18T18:52:00.986Z,10.87
2018-05-18T18:54:27.205Z,10.80
2018-05-18T18:56:53.493Z,10.47
2018-05-18T18:59:20.450Z,11.10
2018-05-18T19:01:46.683Z,10.27
2018-05-18T19:04:13.029Z,10.37
2018-05-18T19:06:40.025Z,9.70
2018-05-18T19:09:06.301Z,10.17
2018-05-18T19:11:32.676Z,10.70
2018-05-18T19:13:59.663Z,11.70
2018-05-18T19:16:25.927Z,10.97
2018-05-18T19:18:52.206Z,10.83
2018-05-18T19:21:19.215Z,11.37
2018-05-18T19:23:45.458Z,10.63
2018-05-18T19:26:11.828Z,10.73
2018-05-18T19:28:38.123Z,11.13
2018-05-18T19:31:04.398Z,11.60
2018-05-18T19:33:30.675Z,11.87
2018-05-18T19:35:56.936Z,12.10
2018-05-18T19:38:23.182Z,11.43
2018-05-18T19:40:49.471Z,12.80
2018-05-18T19:43:15.751Z,13.17
2018-05-18T19:45:42.270Z,12.13
2018-05-18T19:48:08.575Z,12.57
2018-05-18T19:50:34.893Z,12.03
2018-05-18T19:53:01.189Z,11.30
2018-05-18T19:55:27.475Z,13.87
2018-05-18T19:57:53.743Z,12.30
2018-05-18T20:00:20.061Z,12.83
2018-05-18T20:02:53.436Z,13.17
2018-05-18T20:05:19.717Z,12.33
2018-05-18T20:07:45.991Z,11.70
2018-05-18T20:10:19.198Z,12.13
2018-05-18T20:12:45.510Z,11.10
2018-05-18T20:15:11.768Z,11.17
2018-05-18T20:17:38.073Z,11.70
2018-05-18T20:20:04.372Z,11.00
2018-05-18T20:22:30.624Z,10.93
2018-05-18T20:24:56.914Z,11.17
2018-05-18T20:27:23.166Z,11.03
2018-05-18T20:29:49.422Z,12.00
2018-05-18T20:32:15.707Z,10.07
2018-05-18T20:34:42.736Z,10.80
2018-05-18T20:37:08.986Z,10.60
2018-05-18T20:39:35.250Z,10.93
2018-05-18T20:42:02.250Z,11.00
2018-05-18T20:44:28.526Z,10.13
2018-05-18T20:46:54.904Z,9.80
2018-05-18T20:49:21.880Z,10.83
2018-05-18T20:51:48.206Z,9.23
2018-05-18T20:54:14.392Z,10.27
2018-05-18T20:56:40.788Z,9.70
2018-05-18T20:59:07.027Z,9.23
2018-05-18T21:01:34.027Z,8.70
2018-05-18T21:04:00.261Z,8.93
2018-05-18T21:06:26.483Z,9.40
2018-05-18T21:08:52.731Z,8.40
2018-05-18T21:11:18.965Z,10.17
2018-05-18T21:13:45.221Z,10.43
2018-05-18T21:16:11.469Z,11.00
2018-05-18T21:18:37.707Z,8.77
2018-05-18T21:21:03.930Z,11.20
2018-05-18T21:23:30.188Z,10.47
2018-05-18T21:25:56.424Z,11.17
2018-05-18T21:28:22.645Z,11.03
2018-05-18T21:30:48.898Z,8.87
2018-05-18T21:33:15.173Z,9.53
2018-05-18T21:35:41.432Z,9.83
2018-05-18T21:38:07.691Z,10.30
2018-05-18T21:40:33.947Z,12.27
2018-05-18T21:43:00.175Z,12.10
2018-05-18T21:45:27.213Z,11.87
2018-05-18T21:47:53.561Z,11.30
2018-05-18T21:50:20.536Z,11.40
2018-05-18T21:52:46.789Z,11.60
2018-05-18T21:55:13.006Z,10.03
2018-05-18T21:57:39.974Z,11.17
2018-05-18T22:00:06.213Z,10.00
2018-05-18T22:02:33.179Z,10.20
2018-05-18T22:04:59.403Z,9.00
2018-05-18T22:07:26.393Z,9.20
2018-05-18T22:09:52.638Z,9.03
2018-05-18T22:12:18.875Z,8.67
2018-05-18T22:14:45.098Z,8.83
2018-05-18T22:17:11.345Z,8.00
2018-05-18T22:19:37.575Z,7.93
2018-05-18T22:22:03.868Z,8.10
2018-05-18T22:24:30.103Z,9.03
2018-05-18T22:26:56.336Z,8.93
2018-05-18T22:29:22.578Z,8.00
2018-05-18T22:31:48.820Z,7.80
2018-05-18T22:34:15.098Z,7.67
2018-05-18T22:36:41.336Z,8.50
2018-05-18T22:39:07.570Z,7.87
2018-05-18T22:41:33.819Z,7.50
2018-05-18T22:44:00.080Z,7.90
2018-05-18T22:46:27.062Z,8.10
2018-05-18T22:48:53.806Z,8.33
2018-05-18T22:51:20.054Z,8.10
2018-05-18T22:53:46.305Z,7.87
2018-05-18T22:56:12.524Z,7.30
2018-05-18T22:58:38.769Z,9.37
2018-05-18T23:01:05.037Z,7.50
2018-05-18T23:03:31.260Z,8.67
2018-05-18T23:05:57.506Z,8.23
2018-05-18T23:08:23.734Z,8.40
2018-05-18T23:10:49.998Z,9.00
2018-05-18T23:13:16.250Z,8.67
2018-05-18T23:15:42.476Z,9.33
2018-05-18T23:18:08.717Z,9.50
2018-05-18T23:20:34.950Z,9.70
2018-05-18T23:23:01.187Z,9.13
2018-05-18T23:25:27.420Z,8.70
2018-05-18T23:27:53.654Z,9.27
2018-05-18T23:30:19.885Z,9.60
2018-05-18T23:32:46.108Z,9.63
2018-05-18T23:35:13.081Z,9.10
2018-05-18T23:37:39.317Z,8.90
2018-05-18T23:40:06.299Z,9.53
2018-05-18T23:42:32.532Z,9.20
2018-05-18T23:44:58.767Z,10.63
2018-05-18T23:47:31.949Z,8.47
2018-05-18T23:49:59.084Z,9.13
2018-05-18T23:52:25.317Z,9.00
2018-05-18T23:54:51.543Z,8.60
2018-05-18T23:57:17.754Z,9.67
2018-05-18T23:59:44.052Z,10.20
